createdAt,value
2017-09-05T00:00:03.091Z,0
2017-09-05T00:05:02.603Z,0
2017-09-05T00:10:03.225Z,0
2017-09-05T00:15:02.657Z,0
2017-09-05T00:20:03.172Z,0
2017-09-05T00:25:02.708Z,0
2017-09-05T00:30:03.102Z,0
2017-09-05T00:35:02.636Z,0
2017-09-05T00:40:03.126Z,0
2017-09-05T00:45:02.539Z,0
2017-09-05T00:50:03.126Z,0
2017-09-05T00:55:02.551Z,0
2017-09-05T01:00:02.976Z,0
2017-09-05T01:05:02.520Z,0
2017-09-05T01:10:03.054Z,0
2017-09-05T01:15:02.724Z,0
2017-09-05T01:20:03.315Z,0
2017-09-05T01:25:02.923Z,0
2017-09-05T01:30:03.381Z,0
2017-09-05T01:35:03.009Z,0
2017-09-05T01:40:02.628Z,0
2017-09-05T01:45:03.319Z,0
2017-09-05T01:50:02.907Z,0
2017-09-05T01:55:03.367Z,0
2017-09-05T02:00:02.741Z,0
2017-09-05T02:05:03.325Z,0
2017-09-05T02:10:02.990Z,0
2017-09-05T02:15:03.425Z,0
2017-09-05T02:20:02.979Z,0
2017-09-05T02:25:03.430Z,0
2017-09-05T02:30:02.944Z,0
2017-09-05T02:35:03.381Z,0
2017-09-05T02:40:02.833Z,0
2017-09-05T02:45:03.356Z,0
2017-09-05T02:50:02.947Z,0
2017-09-05T02:55:03.360Z,0
2017-09-05T03:00:02.909Z,0
2017-09-05T03:05:02.475Z,0
2017-09-05T03:10:02.936Z,0
2017-09-05T03:15:02.835Z,0
2017-09-05T03:20:03.296Z,0
2017-09-05T03:25:02.670Z,0
2017-09-05T03:30:03.084Z,0
2017-09-05T03:35:02.717Z,0
2017-09-05T03:40:03.291Z,0
2017-09-05T03:45:02.892Z,0
2017-09-05T03:50:02.503Z,0
2017-09-05T03:55:02.988Z,0
2017-09-05T04:00:02.707Z,0
2017-09-05T04:05:03.200Z,0
2017-09-05T04:10:02.670Z,0
2017-09-05T04:15:03.132Z,0
2017-09-05T04:20:02.564Z,0
2017-09-05T04:25:03.040Z,0
2017-09-05T04:30:02.627Z,2
2017-09-05T04:35:03.061Z,2
2017-09-05T04:40:02.682Z,13
2017-09-05T04:45:03.457Z,25
2017-09-05T04:50:02.997Z,27
2017-09-05T04:55:02.602Z,41
2017-09-05T05:00:03.179Z,47
2017-09-05T05:05:02.864Z,53
2017-09-05T05:10:02.611Z,62
2017-09-05T05:15:03.149Z,124
2017-09-05T05:20:02.626Z,407
2017-09-05T05:25:03.037Z,538
2017-09-05T05:30:02.475Z,419
2017-09-05T05:35:02.920Z,287
2017-09-05T05:40:03.355Z,469
2017-09-05T05:45:02.972Z,812
2017-09-05T05:50:03.370Z,1000
2017-09-05T05:55:02.758Z,1000
2017-09-05T06:00:03.167Z,1000
2017-09-05T06:05:02.585Z,1000
2017-09-05T06:10:03.044Z,2000
2017-09-05T06:15:02.468Z,2000
2017-09-05T06:20:03.081Z,3000
2017-09-05T06:25:02.470Z,3000
2017-09-05T06:30:02.945Z,4000
2017-09-05T06:35:02.543Z,4000
2017-09-05T06:40:02.988Z,4000
2017-09-05T06:45:03.411Z,6000
2017-09-05T06:50:02.991Z,5000
2017-09-05T06:55:02.585Z,3000
2017-09-05T07:00:03.001Z,3000
2017-09-05T07:05:02.437Z,3000
2017-09-05T07:10:02.885Z,4000
2017-09-05T07:15:02.508Z,6000
2017-09-05T07:20:02.945Z,6000
2017-09-05T07:25:03.354Z,8000
2017-09-05T07:30:03.196Z,6000
2017-09-05T07:35:02.921Z,5000
2017-09-05T07:40:02.549Z,3000
2017-09-05T07:45:02.974Z,4000
2017-09-05T07:50:02.502Z,5000
2017-09-05T07:55:03.085Z,5000
2017-09-05T08:00:02.453Z,6000
2017-09-05T08:05:03.111Z,7000
2017-09-05T08:10:02.530Z,9000
2017-09-05T08:15:02.953Z,9000
2017-09-05T08:20:03.347Z,15000
2017-09-05T08:25:02.794Z,14000
2017-09-05T08:30:03.206Z,35000
2017-09-05T08:35:02.727Z,20000
2017-09-05T08:40:03.214Z,12000
2017-09-05T08:45:02.714Z,9000
2017-09-05T08:50:03.285Z,7000
2017-09-05T08:55:02.673Z,32000
2017-09-05T09:00:03.047Z,11000
2017-09-05T09:05:02.466Z,10000
2017-09-05T09:10:02.984Z,32000
2017-09-05T09:15:02.538Z,41000
2017-09-05T09:20:03.013Z,27000
2017-09-05T09:25:02.472Z,41000
2017-09-05T09:30:03.002Z,41000
2017-09-05T09:35:02.729Z,44000
2017-09-05T09:40:03.176Z,22000
2017-09-05T09:45:02.665Z,10000
2017-09-05T09:50:03.272Z,11000
2017-09-05T09:55:02.652Z,10000
2017-09-05T10:00:03.138Z,20000
2017-09-05T10:05:02.611Z,22000
2017-09-05T10:10:03.076Z,17000
2017-09-05T10:15:02.428Z,16000
2017-09-05T10:20:03.075Z,46000
2017-09-05T10:25:02.510Z,26000
2017-09-05T10:30:02.915Z,29000
2017-09-05T10:35:03.376Z,55000
2017-09-05T10:40:02.845Z,56000
2017-09-05T10:45:03.273Z,46000
2017-09-05T10:50:02.876Z,20000
2017-09-05T10:55:02.445Z,33000
2017-09-05T11:00:02.856Z,13000
2017-09-05T11:05:03.374Z,8000
2017-09-05T11:10:02.833Z,9000
2017-09-05T11:15:03.277Z,41000
2017-09-05T11:20:02.869Z,12000
2017-09-05T11:25:03.372Z,4000
2017-09-05T11:30:02.801Z,5000
2017-09-05T11:35:03.330Z,8000
2017-09-05T11:40:02.943Z,7000
2017-09-05T11:45:02.484Z,8000
2017-09-05T11:50:02.917Z,9000
2017-09-05T11:55:03.338Z,8000
2017-09-05T12:00:02.759Z,8000
2017-09-05T12:05:03.174Z,5000
2017-09-05T12:10:02.716Z,4000
2017-09-05T12:15:03.239Z,5000
2017-09-05T12:20:02.660Z,6000
2017-09-05T12:25:03.092Z,7000
2017-09-05T12:30:02.486Z,7000
2017-09-05T12:35:03.003Z,12000
2017-09-05T12:40:02.489Z,12000
2017-09-05T12:45:02.960Z,9000
2017-09-05T12:50:02.537Z,8000
2017-09-05T12:55:03.112Z,10000
2017-09-05T13:00:02.645Z,10000
2017-09-05T13:05:03.049Z,10000
2017-09-05T13:10:02.525Z,10000
2017-09-05T13:15:03.001Z,9000
2017-09-05T13:20:03.429Z,7000
2017-09-05T13:25:02.816Z,6000
2017-09-05T13:30:03.381Z,5000
2017-09-05T13:35:02.869Z,9000
2017-09-05T13:40:03.453Z,12000
2017-09-05T13:45:02.900Z,9000
2017-09-05T13:50:02.449Z,9000
2017-09-05T13:55:03.044Z,7000
2017-09-05T14:00:03.431Z,6000
2017-09-05T14:05:02.984Z,7000
2017-09-05T14:10:02.621Z,7000
2017-09-05T14:15:03.013Z,6000
2017-09-05T14:20:03.439Z,3000
2017-09-05T14:25:02.974Z,3000
2017-09-05T14:30:02.489Z,6000
2017-09-05T14:35:02.899Z,6000
2017-09-05T14:40:02.487Z,4000
2017-09-05T14:45:02.972Z,3000
2017-09-05T14:50:03.386Z,2000
2017-09-05T14:55:02.775Z,3000
2017-09-05T15:00:03.249Z,4000
2017-09-05T15:05:02.715Z,7000
2017-09-05T15:10:03.299Z,5000
2017-09-05T15:15:02.751Z,2000
2017-09-05T15:20:03.168Z,3000
2017-09-05T15:25:02.551Z,3000
2017-09-05T15:30:03.151Z,1000
2017-09-05T15:35:02.597Z,1000
2017-09-05T15:40:03.085Z,1000
2017-09-05T15:45:02.610Z,1000
2017-09-05T15:50:03.200Z,1000
2017-09-05T15:55:02.735Z,1000
2017-09-05T16:00:03.227Z,990
2017-09-05T16:05:02.856Z,1000
2017-09-05T16:10:03.313Z,1000
2017-09-05T16:15:02.822Z,1000
2017-09-05T16:20:03.300Z,1000
2017-09-05T16:25:02.841Z,2000
2017-09-05T16:30:03.328Z,1000
2017-09-05T16:35:02.829Z,1000
2017-09-05T16:40:03.270Z,2000
2017-09-05T16:45:02.830Z,6000
2017-09-05T16:50:02.458Z,5000
2017-09-05T16:55:03.035Z,3000
2017-09-05T17:00:02.517Z,3000
2017-09-05T17:05:02.935Z,1000
2017-09-05T17:10:03.421Z,2000
2017-09-05T17:15:02.962Z,1000
2017-09-05T17:20:03.434Z,1000
2017-09-05T17:25:02.803Z,1000
2017-09-05T17:30:03.314Z,1000
2017-09-05T17:35:02.707Z,862
2017-09-05T17:40:03.159Z,655
2017-09-05T17:45:02.604Z,582
2017-09-05T17:50:03.082Z,531
2017-09-05T17:55:02.630Z,268
2017-09-05T18:00:03.060Z,138
2017-09-05T18:05:02.563Z,64
2017-09-05T18:10:03.177Z,50
2017-09-05T18:15:02.709Z,35
2017-09-05T18:20:03.354Z,14
2017-09-05T18:25:03.009Z,12
2017-09-05T18:30:02.594Z,9
2017-09-05T18:35:03.157Z,5
2017-09-05T18:40:02.736Z,1
2017-09-05T18:45:03.275Z,1
2017-09-05T18:50:02.689Z,0
2017-09-05T18:55:03.309Z,0
2017-09-05T19:00:02.868Z,0
2017-09-05T19:05:03.418Z,0
2017-09-05T19:10:03.037Z,0
2017-09-05T19:15:02.635Z,0
2017-09-05T19:20:03.205Z,0
2017-09-05T19:25:02.573Z,0
2017-09-05T19:30:03.035Z,0
2017-09-05T19:35:02.534Z,0
2017-09-05T19:40:03.151Z,0
2017-09-05T19:45:02.726Z,0
2017-09-05T19:50:03.191Z,0
2017-09-05T19:55:02.719Z,0
2017-09-05T20:00:03.140Z,0
2017-09-05T20:05:02.664Z,0
2017-09-05T20:10:03.280Z,0
2017-09-05T20:15:02.660Z,0
2017-09-05T20:20:03.134Z,0
2017-09-05T20:25:02.542Z,0
2017-09-05T20:30:02.984Z,0
2017-09-05T20:35:02.638Z,0
2017-09-05T20:40:03.137Z,0
2017-09-05T20:45:02.728Z,0
2017-09-05T20:50:03.136Z,0
2017-09-05T20:55:02.589Z,0
2017-09-05T21:00:03.331Z,0
2017-09-05T21:05:02.737Z,0
2017-09-05T21:10:03.365Z,0
2017-09-05T21:15:02.727Z,0
2017-09-05T21:20:03.318Z,0
2017-09-05T21:25:02.922Z,0
2017-09-05T21:30:03.288Z,0
2017-09-05T21:35:02.811Z,0
2017-09-05T21:40:03.398Z,0
2017-09-05T21:45:02.766Z,0
2017-09-05T21:50:03.164Z,0
2017-09-05T21:55:02.725Z,0
2017-09-05T22:00:03.348Z,0
2017-09-05T22:05:02.768Z,0
2017-09-05T22:10:03.676Z,0
2017-09-05T22:15:03.278Z,0
2017-09-05T22:20:02.896Z,0
2017-09-05T22:25:03.354Z,0
2017-09-05T22:30:02.790Z,0
2017-09-05T22:35:03.323Z,0
2017-09-05T22:40:02.809Z,0
2017-09-05T22:45:02.463Z,0
2017-09-05T22:50:02.881Z,0
2017-09-05T22:55:02.530Z,0
2017-09-05T23:00:03.513Z,0
2017-09-05T23:05:02.506Z,0
2017-09-05T23:10:03.105Z,0
2017-09-05T23:15:02.675Z,0
2017-09-05T23:20:03.149Z,0
2017-09-05T23:25:02.628Z,0
2017-09-05T23:30:03.122Z,0
2017-09-05T23:35:02.700Z,0
2017-09-05T23:40:03.209Z,0
2017-09-05T23:45:02.784Z,0
2017-09-05T23:50:03.472Z,0
2017-09-05T23:55:03.216Z,0
